°C

Conditions at local time : on    Forecast:

Nearby METAR Reports

EGKA - Shoreham-By-Sea, United Kingdom
Distance from station: ENE 4mi, 6km
Updated: Sat, 30-May-2020 2:50pm BST
Clear
Clear
 Wind from ESE
Wind: ESE 10 mph , 17 km/h
Temperature: 21°C
Dew Point: 10°C
Humidity: 50%
Barometer: 1021 hPa
Summary: Clear
Visibility: greater than 7 miles , 10 km
2020/05/30 13:50 EGKA 301350Z 12009KT CAVOK 21/10 Q1021
EGKK - London/Gatwick A, United Kingdom
Distance from station: NNE 24mi, 39km
Updated: Sat, 30-May-2020 2:50pm BST
Clear
Clear
 Wind from NE
Wind: NE 15 mph , 24 km/h
Temperature: 23°C
Dew Point: 5°C
Humidity: 31%
Barometer: 1022 hPa
Summary: Clear
Visibility: greater than 7 miles , 10 km
2020/05/30 13:50 EGKK 301350Z 05013KT CAVOK 23/05 Q1022
 
EGLF - Farnborough, United Kingdom
Distance from station: NNW 37mi, 59km
Updated: Sat, 30-May-2020 2:50pm BST
Clear
Clear
 Wind from E
Wind: E 15 mph , 24 km/h
Temperature: 24°C
Dew Point: 4°C
Humidity: 27%
Barometer: 1022 hPa
Clouds: Clear
Visibility: 6 miles , 10 km
2020/05/30 13:50 EGLF 301350Z AUTO 09013KT 040V130 9999 NCD 24/04 Q1022
EGVO - Odiham Raf, United Kingdom
Distance from station: NW 38mi, 61km
Updated: Sat, 30-May-2020 1:50pm BST
Few Clouds
Few Clouds
 Wind from ENE
Wind: ENE 10 mph , 17 km/h
Temperature: 24°C
Dew Point: 9°C
Humidity: 39%
Barometer: 1022 hPa
Clouds: Few Clouds
Visibility: 6 miles , 10 km
Cloud details: Few Clouds 1829 m
2020/05/30 12:50 EGVO 301250Z AUTO 07009KT 9999 FEW060/// 24/09 Q1022